AirNav   Air Wisconsin pilot careers
 
 1085 users online  

JLA Quartz Creek Airport
Cooper Landing, Alaska, USA

GOING TO COOPER LANDING?


FAA INFORMATION EFFECTIVE 04 JANUARY 2018

Location

FAA Identifier: JLA
Lat/Long: 60-29-03.3500N / 149-43-22.4400W
60-29.055833N / 149-43.374000W
60.4842639 / -149.7229000
(estimated)
Elevation: 466 ft. / 142 m (estimated)
Variation: 25E (1985)
From city: 3 miles W of COOPER LANDING, AK
Time zone: UTC -9 (UTC -8 during Daylight Saving Time)
Zip code: 99572

Airport Operations

Airport use: Open to the public
Control tower: no
ARTCC: ANCHORAGE CENTER
FSS: KENAI FLIGHT SERVICE STATION [907-283-8469]
NOTAMs facility: ENA (NOTAM-D service available)
Attendance: UNATNDD
Wind indicator: yes, WINDSOCK IS BELOW TREELINE AND MAY BE UNRELIABLE.
Segmented circle: no

Airport Communications

CTAF: 122.9

Nearby radio navigation aids

NDB name  Hdg/Dist  Freq  Var  ID
SOLDOTNA070/34.234619EOLT --- .-.. -

Airport Services

Parking: tiedowns
Airframe service: NONE
Powerplant service: NONE
Bottled oxygen: NONE
Bulk oxygen: NONE

Runway Information

Runway 4/22

Dimensions: 2200 x 60 ft. / 671 x 18 m
Surface: gravel/dirt, in good condition
Runway edge markings: RY 04/22 MARKED WITH REFLECTIVE THLD PANELS.
Gradient: NORTHEAST
RUNWAY 4  RUNWAY 22
Latitude: 60-28.956500N60-29.155167N
Longitude: 149-43.679333W149-43.068667W
Elevation: 459.0 ft.466.0 ft.
Gradient: 0.3% UP0.1%
Traffic pattern: leftleft
Runway heading: 032 magnetic, 057 true212 magnetic, 237 true
Obstructions: 46 ft. trees, 369 ft. from runway, 126 ft. left of centerline, 7:1 slope to clear
MTN LCTD 2 SM FM APCH END.
65 ft. trees, 450 ft. from runway, 154 ft. left of centerline, 8:1 slope to clear

Airport Ownership and Management from official FAA records

Ownership: Publicly-owned
Owner: ALASKA DOT&PF CENTRAL REGION
P O BOX 196900
ANCHORAGE, AK 99519-6900
Phone 907-269-0770
Manager: SEAN MONTGOMERY/CARL HIGH
STATE OF ALASKA - DOTPF, P.O. BOX 1327
SOLDOTNA, AK 99669
Phone 907-262-2199

Airport Operational Statistics

Aircraft based on the field: 3
Single engine airplanes: 3
    
Aircraft operations: avg 38/month *
89% transient general aviation
11% local general aviation
* for 12-month period ending 31 December 2013

Additional Remarks

RY 04/22 EDGES NOT MKD.
STATE MAINTENANCE ON IRREGULAR BASIS, RCMD VISUAL INSPECTION PRIOR TO LANDING.
WX CAMERA AVBL ON INTERNET AT HTTP://AVCAMS.FAA.GOV

Instrument Procedures

There are no published instrument procedures at JLA.

Some nearby airports with instrument procedures:

PAWD - Seward Airport (23 nm SE)
PASX - Soldotna Airport (39 nm W)
PANC - Ted Stevens Anchorage International Airport (42 nm N)
PAMR - Merrill Field Airport (44 nm N)
PAEN - Kenai Municipal Airport (45 nm W)
 
Loc | Ops | Rwys | IFR | FBO | Links
Com | Nav | Svcs | Stats | Notes

Crowley
 
Area around JLA (Quartz Creek Airport)
 
Road maps at: MapQuest Bing Google
 
Aerial photo
WARNING: Photo may not be current or correct
Aerial photo of JLA (Quartz Creek Airport)
Do you have a better or more recent aerial photo of Quartz Creek Airport that you would like to share? If so, please send us your photo.

 
Sectional chart

 
Airport distance calculator
Flying to Quartz Creek Airport? Find the distance to fly.

From to JLA

Sunrise and sunset
Times for 20-Jan-2018
 Local
(UTC-9)
 Zulu
(UTC)
Morning civil twilight08:5017:50
Sunrise09:4218:42
Sunset16:3801:38
Evening civil twilight17:3002:30

Current date and time
Zulu (UTC)  20-Jan-2018 18:52:01
Local (UTC-9)  20-Jan-2018 09:52:01
 
METAR
PAWD 
24nm S 
201753Z AUTO 01019G28KT 10SM CLR M04/M08 A2960 RMK AO2 PK WND 36033/1719 SLP022 T10391078 11028 21039 55002 TSNO $
PATO 
31nm NE 
201753Z AUTO 29006KT 10SM BKN016 M06/M07 A2965 RMK AO2 SLP043 T10561067 11044 21056 52001 TSNO
PASX 
39nm W 
201756Z AUTO 07005KT 10SM CLR M16/M17 A2971 RMK AO2 SLP072 T11561172 11128 21156 53000 FZRANO
PANC 
42nm N 
201753Z 36009KT 10SM FEW050 M06/M14 A2967 RMK AO2 SLP051 4/005 I1000 I6001 T10611139 11050 21094 53002 $
PALH 
43nm N 
201753Z 06006KT 10SM FEW120 M11/M13 A2969 RMK AO2 SLP054 I1001 I6002 T11111128 11106 21133 53003
PAMR 
44nm N 
201753Z 00000KT 10SM CLR M14/M16 A2968 RMK AO2 SLP053 I1001 I6002 T11391156 11111 21150 53004 $
PAEN 
45nm W 
201753Z 06004KT 10SM CLR M15/M16 A2969 RMK AO2 SLP058 I6000 T11501161 11111 21150 55000
PAED 
46nm N 
201756Z AUTO 00000KT 10SM CLR M12/M13 A2967 RMK AO2 SLP047 T11251129 11114 21158 53003
PAFR 
47nm N 
201758Z AUTO 00000KT 10SM CLR M16/M17 A2964 RMK AO2 SLP052 T11581172 11121 21161 53003 $
TAF
PANC 
42nm N 
201721Z 2018/2124 36008KT P6SM FEW070 SCT120
PAEN 
45nm W 
201721Z 2018/2118 03008KT P6SM FEW060 SCT100
PAED 
46nm N 
201445Z 2014/2117 VRB06KT 9999 FEW003 FEW050 BKN120 QNH2962INS TEMPO 2015/2020 9000 BR BKN003 600031 BECMG 2021/2022 VRB06KT 9999 BKN050 BKN120 600505 QNH2953INS TXM09/2100Z TNM15/2018Z
NOTAMs
Click for the latest NOTAMs
NOTAMs are issued by the DoD/FAA and will open in a separate window not controlled by AirNav.

 

 
 

Would you like to see your business listed on this page?

 If your business provides an interesting product or service to pilots, flight crews, aircraft, or users of the Quartz Creek Airport, you should consider listing it here.  To start the listing process, click on the button below
 
Add a business
 

Other Pages about Quartz Creek Airport

Update a link
 
Copyright © AirNav, LLC. All rights reserved. Privacy Policy  Contact